createdAt,value
2019-05-01T00:00:22.849Z,10.20
2019-05-01T00:03:22.669Z,10.10
2019-05-01T00:06:04.066Z,9.90
2019-05-01T00:08:44.992Z,9.70
2019-05-01T00:11:25.555Z,9.40
2019-05-01T00:14:06.220Z,9.20
2019-05-01T00:16:47.371Z,9.30
2019-05-01T00:19:28.652Z,9.30
2019-05-01T00:22:09.522Z,9.20
2019-05-01T00:27:51.504Z,9.10
2019-05-01T00:33:30.916Z,9.10
2019-05-01T00:36:18.981Z,9.10
2019-05-01T00:39:07.464Z,9.10
2019-05-01T00:41:55.528Z,9.10
2019-05-01T00:44:24.355Z,9.10
2019-05-01T00:47:12.374Z,9.10
2019-05-01T00:50:00.499Z,9.20
2019-05-01T00:52:29.518Z,9.30
2019-05-01T00:55:36.736Z,9.30
2019-05-01T01:01:35.213Z,9.50
2019-05-01T01:04:18.076Z,9.50
2019-05-01T01:06:58.601Z,9.60
2019-05-01T01:09:39.355Z,9.60
2019-05-01T01:12:20.152Z,9.60
2019-05-01T01:15:00.795Z,9.60
2019-05-01T01:17:41.469Z,9.60
2019-05-01T01:20:22.296Z,9.70
2019-05-01T01:23:31.055Z,9.70
2019-05-01T01:25:59.947Z,9.70
2019-05-01T01:28:28.863Z,9.70
2019-05-01T01:31:16.911Z,9.70
2019-05-01T01:34:05.061Z,9.80
2019-05-01T01:36:53.117Z,9.80
2019-05-01T01:39:41.265Z,9.80
2019-05-01T01:48:25.719Z,9.90
2019-05-01T01:51:13.852Z,10.00
2019-05-01T01:54:02.158Z,10.00
2019-05-01T01:56:50.682Z,10.00
2019-05-01T01:59:31.701Z,10.00
2019-05-01T02:02:31.591Z,10.00
2019-05-01T02:05:15.738Z,10.00
2019-05-01T02:07:56.512Z,10.00
2019-05-01T02:10:43.065Z,10.00
2019-05-01T02:13:19.998Z,10.10
2019-05-01T02:16:00.044Z,10.10
2019-05-01T02:18:48.144Z,10.10
2019-05-01T02:21:36.260Z,10.10
2019-05-01T02:24:24.365Z,10.10
2019-05-01T02:33:07.102Z,10.20
2019-05-01T02:35:55.147Z,10.20
2019-05-01T02:39:03.823Z,10.20
2019-05-01T02:42:12.506Z,10.30
2019-05-01T02:45:21.194Z,10.30
2019-05-01T02:48:09.876Z,10.40
2019-05-01T02:54:26.504Z,10.40
2019-05-01T03:00:25.564Z,10.40
2019-05-01T03:06:07.832Z,10.50
2019-05-01T03:09:16.680Z,10.50
2019-05-01T03:11:57.991Z,10.40
2019-05-01T03:14:39.474Z,10.40
2019-05-01T03:17:39.027Z,10.30
2019-05-01T03:20:47.809Z,10.30
2019-05-01T03:23:55.072Z,10.30
2019-05-01T03:26:43.108Z,10.30
2019-05-01T03:29:31.381Z,10.30
2019-05-01T03:32:20.133Z,10.20
2019-05-01T03:35:09.410Z,10.30
2019-05-01T03:37:57.550Z,10.30
2019-05-01T03:40:45.668Z,10.20
2019-05-01T03:43:33.905Z,10.20
2019-05-01T03:46:22.181Z,10.10
2019-05-01T03:49:10.422Z,10.00
2019-05-01T03:51:58.822Z,10.00
2019-05-01T03:54:47.143Z,10.00
2019-05-01T03:57:28.203Z,10.00
2019-05-01T04:00:10.720Z,9.90
2019-05-01T04:03:11.073Z,9.90
2019-05-01T04:05:51.664Z,9.90
2019-05-01T04:08:32.493Z,9.80
2019-05-01T04:11:13.442Z,9.80
2019-05-01T04:13:42.448Z,9.80
2019-05-01T04:16:30.734Z,9.80
2019-05-01T04:19:18.963Z,9.90
2019-05-01T04:25:19.581Z,9.90
2019-05-01T04:28:27.194Z,9.90
2019-05-01T04:31:34.751Z,9.90
2019-05-01T04:37:29.353Z,9.90
2019-05-01T04:40:18.997Z,9.90
2019-05-01T04:43:07.457Z,10.00
2019-05-01T04:45:56.094Z,10.00
2019-05-01T04:48:44.361Z,10.00
2019-05-01T04:51:32.908Z,10.00
2019-05-01T04:54:21.273Z,9.90
2019-05-01T04:57:09.682Z,9.90
2019-05-01T04:59:50.617Z,9.90
2019-05-01T05:03:04.030Z,10.00
2019-05-01T05:05:36.775Z,10.00
2019-05-01T05:08:17.314Z,9.90
2019-05-01T05:10:59.195Z,9.90
2019-05-01T05:13:47.105Z,9.90
2019-05-01T05:16:48.558Z,9.90
2019-05-01T05:19:29.682Z,9.90
2019-05-01T05:22:10.636Z,9.90
2019-05-01T05:24:52.020Z,9.90
2019-05-01T05:33:18.689Z,9.90
2019-05-01T05:35:54.952Z,9.90
2019-05-01T05:41:28.570Z,9.90
2019-05-01T05:44:11.956Z,10.00
2019-05-01T05:46:53.982Z,10.10
2019-05-01T05:49:35.027Z,10.10
2019-05-01T05:58:32.158Z,10.30
2019-05-01T06:01:32.454Z,10.20
2019-05-01T06:04:32.808Z,10.40
2019-05-01T06:13:46.668Z,10.20
2019-05-01T06:19:26.318Z,10.10
2019-05-01T06:25:29.983Z,10.00
2019-05-01T06:28:19.857Z,10.10
2019-05-01T06:34:23.973Z,10.10
2019-05-01T06:37:04.975Z,10.00
2019-05-01T06:39:48.128Z,10.10
2019-05-01T06:42:28.572Z,10.40
2019-05-01T06:45:16.780Z,10.60
2019-05-01T06:48:00.809Z,10.90
2019-05-01T06:50:51.538Z,10.60
2019-05-01T06:53:36.060Z,10.60
2019-05-01T06:56:15.295Z,10.70
2019-05-01T06:58:56.477Z,10.60
2019-05-01T07:04:31.879Z,10.20
2019-05-01T07:07:01.966Z,10.00
2019-05-01T07:09:31.463Z,9.90
2019-05-01T07:12:03.566Z,9.80
2019-05-01T07:14:32.607Z,9.80
2019-05-01T07:17:01.489Z,9.90
2019-05-01T07:19:48.171Z,10.00
2019-05-01T07:22:17.351Z,10.00
2019-05-01T07:24:48.994Z,10.10
2019-05-01T07:27:18.864Z,10.20
2019-05-01T07:29:49.665Z,10.40
2019-05-01T07:32:18.699Z,10.40
2019-05-01T07:34:49.005Z,10.40
2019-05-01T07:37:20.903Z,10.50
2019-05-01T07:39:51.815Z,10.40
2019-05-01T07:42:29.041Z,10.30
2019-05-01T07:45:09.678Z,10.20
2019-05-01T07:47:43.336Z,10.10
2019-05-01T07:50:14.743Z,10.10
2019-05-01T07:52:47.785Z,10.10
2019-05-01T07:55:18.324Z,10.20
2019-05-01T07:57:46.014Z,10.40
2019-05-01T08:00:36.967Z,10.40
2019-05-01T08:03:14.265Z,10.60
2019-05-01T08:05:46.819Z,10.90
2019-05-01T08:08:28.498Z,10.80
2019-05-01T08:10:59.964Z,11.10
2019-05-01T08:13:35.059Z,11.50
2019-05-01T08:16:07.181Z,11.70
2019-05-01T08:19:07.566Z,11.50
2019-05-01T08:22:01.608Z,11.40
2019-05-01T08:24:31.937Z,11.30
2019-05-01T08:27:05.738Z,11.50
2019-05-01T08:29:56.515Z,11.60
2019-05-01T08:32:39.155Z,12.20
2019-05-01T08:35:10.905Z,12.10
2019-05-01T08:37:41.943Z,11.80
2019-05-01T08:40:15.758Z,12.40
2019-05-01T08:42:44.206Z,12.80
2019-05-01T08:45:40.162Z,13.20
2019-05-01T08:48:17.364Z,13.40
2019-05-01T08:50:46.322Z,13.40
2019-05-01T08:53:18.089Z,13.30
2019-05-01T08:55:47.084Z,12.90
2019-05-01T08:58:16.365Z,13.00
2019-05-01T09:00:45.408Z,14.00
2019-05-01T09:03:18.709Z,14.00
2019-05-01T09:05:44.923Z,15.10
2019-05-01T09:08:13.813Z,15.60
2019-05-01T09:10:42.721Z,14.50
2019-05-01T09:13:11.643Z,15.00
2019-05-01T09:15:43.753Z,15.80
2019-05-01T09:18:11.253Z,15.20
2019-05-01T09:20:41.496Z,15.10
2019-05-01T09:23:14.302Z,15.10
2019-05-01T09:25:52.341Z,15.40
2019-05-01T09:28:29.113Z,15.70
2019-05-01T09:31:03.405Z,15.30
2019-05-01T09:33:33.904Z,15.00
2019-05-01T09:36:05.121Z,15.20
2019-05-01T09:38:37.880Z,15.00
2019-05-01T09:41:11.531Z,15.00
2019-05-01T09:43:47.645Z,14.80
2019-05-01T09:46:42.376Z,15.80
2019-05-01T09:49:18.278Z,16.20
2019-05-01T09:52:32.662Z,17.10
2019-05-01T09:55:24.605Z,17.10
2019-05-01T09:58:02.659Z,16.80
2019-05-01T10:00:35.901Z,17.30
2019-05-01T10:03:19.344Z,16.50
2019-05-01T10:05:57.688Z,16.80
2019-05-01T10:08:53.027Z,16.80
2019-05-01T10:11:49.251Z,16.40
2019-05-01T10:14:22.813Z,16.20
2019-05-01T10:16:54.905Z,15.00
2019-05-01T10:19:26.081Z,15.30
2019-05-01T10:22:12.613Z,14.70
2019-05-01T10:24:56.696Z,15.00
2019-05-01T10:27:35.754Z,15.00
2019-05-01T10:30:31.794Z,15.00
2019-05-01T10:33:13.218Z,15.10
2019-05-01T10:39:20.842Z,14.50
2019-05-01T10:42:56.841Z,15.40
2019-05-01T10:45:59.112Z,16.30
2019-05-01T10:48:45.872Z,15.60
2019-05-01T10:51:36.752Z,16.20
2019-05-01T10:54:08.390Z,17.00
2019-05-01T10:56:47.794Z,16.90
2019-05-01T10:59:43.690Z,17.10
2019-05-01T11:02:41.729Z,17.00
2019-05-01T11:05:39.063Z,16.60
2019-05-01T11:08:23.901Z,16.70
2019-05-01T11:11:05.981Z,17.20
2019-05-01T11:13:45.760Z,17.60
2019-05-01T11:17:17.049Z,18.60
2019-05-01T11:19:46.945Z,18.00
2019-05-01T11:22:19.170Z,18.10
2019-05-01T11:24:48.093Z,17.80
2019-05-01T11:27:17.145Z,18.00
2019-05-01T11:29:46.157Z,18.50
2019-05-01T11:32:33.960Z,18.20
2019-05-01T11:35:20.533Z,17.20
2019-05-01T11:38:08.549Z,17.40
2019-05-01T11:40:44.029Z,17.50
2019-05-01T11:43:12.956Z,18.30
2019-05-01T11:45:42.142Z,17.80
2019-05-01T11:48:11.063Z,17.80
2019-05-01T11:50:40.190Z,17.80
2019-05-01T11:53:09.218Z,17.70
2019-05-01T11:55:41.395Z,17.80
2019-05-01T11:58:10.385Z,17.70
2019-05-01T12:00:39.580Z,18.20
2019-05-01T12:03:08.458Z,18.30
2019-05-01T12:05:37.416Z,18.70
2019-05-01T12:08:06.613Z,18.70
2019-05-01T12:10:36.182Z,18.60
2019-05-01T12:13:05.371Z,17.70
2019-05-01T12:15:34.453Z,17.70
2019-05-01T12:18:03.502Z,18.10
2019-05-01T12:20:32.558Z,18.50
2019-05-01T12:23:01.678Z,18.20
2019-05-01T12:25:30.862Z,17.90
2019-05-01T12:28:00.550Z,17.40
2019-05-01T12:30:29.450Z,17.20
2019-05-01T12:32:58.546Z,17.10
2019-05-01T12:35:27.456Z,17.10
2019-05-01T12:37:59.171Z,17.50
2019-05-01T12:40:28.160Z,18.50
2019-05-01T12:43:00.678Z,18.20
2019-05-01T12:45:29.742Z,18.40
2019-05-01T12:48:00.712Z,18.60
2019-05-01T12:50:29.733Z,18.40
2019-05-01T12:53:04.286Z,18.60
2019-05-01T12:55:49.974Z,18.40
2019-05-01T12:58:18.943Z,18.00
2019-05-01T13:00:50.743Z,18.10
2019-05-01T13:03:19.659Z,17.50
2019-05-01T13:06:29.872Z,17.80
2019-05-01T13:12:58.834Z,18.30
2019-05-01T13:19:03.713Z,18.70
2019-05-01T13:21:51.981Z,17.80
2019-05-01T13:25:00.633Z,17.50
2019-05-01T13:31:24.080Z,18.30
2019-05-01T13:34:12.371Z,18.60
2019-05-01T13:37:21.376Z,18.50
2019-05-01T13:40:10.468Z,17.90
2019-05-01T13:42:58.663Z,17.80
2019-05-01T13:49:01.651Z,18.90
2019-05-01T13:51:49.947Z,18.40
2019-05-01T13:54:38.164Z,18.10
2019-05-01T13:57:30.517Z,17.80
2019-05-01T14:00:19.174Z,17.90
2019-05-01T14:03:00.519Z,18.30
2019-05-01T14:08:36.197Z,18.30
2019-05-01T14:11:20.338Z,17.70
2019-05-01T14:14:10.079Z,17.70
2019-05-01T14:16:58.534Z,17.80
2019-05-01T14:23:10.954Z,18.20
2019-05-01T14:26:18.304Z,18.20
2019-05-01T14:29:06.545Z,18.00
2019-05-01T14:31:57.099Z,18.20
2019-05-01T14:34:45.186Z,18.70
2019-05-01T14:37:52.718Z,18.50
2019-05-01T14:40:40.932Z,17.90
2019-05-01T14:43:29.237Z,17.80
2019-05-01T14:46:17.336Z,17.90
2019-05-01T14:49:05.647Z,18.00
2019-05-01T14:51:54.031Z,18.20
2019-05-01T14:54:42.128Z,17.80
2019-05-01T14:57:30.168Z,18.10
2019-05-01T15:03:07.222Z,17.90
2019-05-01T15:05:54.432Z,17.70
2019-05-01T15:11:16.281Z,17.90
2019-05-01T15:17:26.500Z,17.60
2019-05-01T15:22:57.820Z,17.60
2019-05-01T15:25:45.940Z,17.50
2019-05-01T15:28:14.904Z,17.80
2019-05-01T15:31:03.231Z,17.70
2019-05-01T15:33:51.512Z,17.80
2019-05-01T15:36:39.848Z,17.70
2019-05-01T15:42:45.744Z,17.50
2019-05-01T15:45:33.982Z,17.40
2019-05-01T15:48:22.154Z,17.60
2019-05-01T15:51:10.458Z,17.60
2019-05-01T15:53:58.779Z,17.50
2019-05-01T15:56:47.079Z,17.50
2019-05-01T15:59:35.409Z,17.20
2019-05-01T16:02:23.601Z,17.10
2019-05-01T16:05:11.951Z,16.90
2019-05-01T16:08:09.512Z,17.10
2019-05-01T16:11:11.058Z,17.20
2019-05-01T16:13:58.245Z,17.00
2019-05-01T16:16:43.353Z,16.90
2019-05-01T16:19:24.242Z,16.70
2019-05-01T16:22:05.004Z,16.50
2019-05-01T16:24:45.747Z,16.40
2019-05-01T16:27:26.785Z,16.40
2019-05-01T16:30:08.089Z,16.60
2019-05-01T16:32:51.951Z,16.80
2019-05-01T16:35:33.418Z,16.80
2019-05-01T16:41:06.489Z,17.10
2019-05-01T16:43:49.323Z,17.10
2019-05-01T16:46:30.486Z,16.90
2019-05-01T16:48:59.547Z,17.00
2019-05-01T16:51:29.741Z,16.90
2019-05-01T16:53:59.413Z,16.90
2019-05-01T16:56:47.691Z,16.90
2019-05-01T16:59:35.736Z,16.80
2019-05-01T17:02:42.952Z,16.80
2019-05-01T17:05:50.147Z,16.50
2019-05-01T17:08:57.403Z,16.50
2019-05-01T17:11:38.193Z,16.50
2019-05-01T17:14:19.508Z,16.40
2019-05-01T17:17:00.216Z,16.40
2019-05-01T17:19:40.765Z,16.40
2019-05-01T17:22:21.570Z,16.30
2019-05-01T17:25:02.542Z,16.20
2019-05-01T17:27:42.979Z,16.10
2019-05-01T17:30:25.456Z,16.00
2019-05-01T17:33:06.604Z,16.00
2019-05-01T17:35:47.351Z,15.90
2019-05-01T17:38:28.038Z,15.80
2019-05-01T17:41:08.855Z,15.70
2019-05-01T17:43:50.596Z,15.80
2019-05-01T17:46:31.820Z,15.60
2019-05-01T17:49:12.275Z,15.60
2019-05-01T17:51:53.284Z,15.50
2019-05-01T17:54:34.022Z,15.40
2019-05-01T17:57:14.632Z,15.30
2019-05-01T17:59:55.571Z,15.30
2019-05-01T18:02:36.626Z,15.10
2019-05-01T18:05:24.730Z,15.10
2019-05-01T18:08:12.848Z,15.10
2019-05-01T18:11:00.929Z,15.00
2019-05-01T18:13:48.998Z,14.90
2019-05-01T18:16:37.005Z,14.90
2019-05-01T18:19:25.389Z,14.80
2019-05-01T18:22:37.069Z,14.70
2019-05-01T18:29:13.966Z,14.50
2019-05-01T18:32:14.373Z,14.40
2019-05-01T18:34:52.535Z,14.30
2019-05-01T18:38:11.588Z,14.30
2019-05-01T18:41:19.681Z,14.20
2019-05-01T18:44:10.034Z,14.10
2019-05-01T18:46:58.715Z,14.00
2019-05-01T18:49:46.951Z,13.90
2019-05-01T18:52:35.335Z,13.80
2019-05-01T18:55:25.875Z,13.80
2019-05-01T18:58:13.462Z,13.70
2019-05-01T19:01:03.928Z,13.70
2019-05-01T19:03:44.711Z,13.60
2019-05-01T19:06:13.853Z,13.60
2019-05-01T19:09:14.312Z,13.50
2019-05-01T19:11:52.529Z,13.50
2019-05-01T19:14:40.854Z,13.30
2019-05-01T19:17:29.155Z,13.30
2019-05-01T19:20:17.298Z,13.20
2019-05-01T19:23:05.643Z,13.10
2019-05-01T19:25:56.451Z,13.00
2019-05-01T19:28:46.480Z,12.90
2019-05-01T19:31:34.698Z,12.90
2019-05-01T19:34:23.038Z,12.80
2019-05-01T19:40:53.044Z,12.60
2019-05-01T19:46:36.050Z,12.40
2019-05-01T19:49:44.794Z,12.40
2019-05-01T19:52:14.236Z,12.30
2019-05-01T20:01:30.628Z,12.10
2019-05-01T20:04:15.112Z,12.00
2019-05-01T20:06:57.678Z,12.00
2019-05-01T20:09:41.840Z,11.90
2019-05-01T20:12:22.470Z,11.80
2019-05-01T20:15:04.878Z,11.70
2019-05-01T20:17:46.963Z,11.70
2019-05-01T20:20:28.144Z,11.70
2019-05-01T20:23:12.006Z,11.60
2019-05-01T20:25:55.779Z,11.50
2019-05-01T20:28:37.385Z,11.50
2019-05-01T20:31:32.928Z,11.40
2019-05-01T20:34:22.109Z,11.40
2019-05-01T20:37:03.260Z,11.30
2019-05-01T20:39:47.371Z,11.30
2019-05-01T20:42:28.191Z,11.20
2019-05-01T20:45:17.460Z,11.20
2019-05-01T20:47:46.151Z,11.10
2019-05-01T20:50:18.491Z,11.10
2019-05-01T20:52:48.608Z,11.00
2019-05-01T20:55:17.782Z,11.00
2019-05-01T20:57:47.389Z,10.80
2019-05-01T21:00:18.617Z,10.80
2019-05-01T21:02:47.651Z,10.80
2019-05-01T21:05:25.349Z,10.80
2019-05-01T21:08:16.431Z,10.70
2019-05-01T21:11:05.934Z,10.70
2019-05-01T21:13:46.919Z,10.70
2019-05-01T21:16:39.630Z,10.60
2019-05-01T21:19:11.625Z,10.60
2019-05-01T21:21:40.784Z,10.50
2019-05-01T21:24:15.607Z,10.50
2019-05-01T21:26:45.604Z,10.50
2019-05-01T21:29:15.063Z,10.50
2019-05-01T21:31:44.237Z,10.50
2019-05-01T21:34:14.463Z,10.40
2019-05-01T21:36:47.647Z,10.30
2019-05-01T21:39:15.023Z,10.30
2019-05-01T21:41:44.983Z,10.30
2019-05-01T21:44:13.968Z,10.30
2019-05-01T21:46:43.249Z,10.30
2019-05-01T21:49:12.958Z,10.20
2019-05-01T21:51:45.861Z,10.20
2019-05-01T21:56:42.990Z,10.10
2019-05-01T21:59:12.060Z,10.00
2019-05-01T22:04:09.467Z,9.90
2019-05-01T22:06:38.550Z,9.90
2019-05-01T22:09:15.216Z,9.80
2019-05-01T22:11:44.578Z,9.80
2019-05-01T22:14:18.553Z,9.70
2019-05-01T22:16:47.619Z,9.60
2019-05-01T22:19:19.086Z,9.60
2019-05-01T22:21:55.763Z,9.50
2019-05-01T22:24:40.028Z,9.50
2019-05-01T22:27:13.393Z,9.50
2019-05-01T22:29:51.296Z,9.40
2019-05-01T22:32:32.546Z,9.30
2019-05-01T22:35:09.725Z,9.30
2019-05-01T22:37:38.634Z,9.20
2019-05-01T22:40:10.287Z,9.10
2019-05-01T22:42:39.220Z,9.10
2019-05-01T22:45:13.558Z,9.00
2019-05-01T22:47:45.985Z,9.00
2019-05-01T22:50:13.444Z,8.90
2019-05-01T22:52:42.340Z,8.80
2019-05-01T22:55:12.686Z,8.90
2019-05-01T22:57:41.704Z,8.80
2019-05-01T23:00:19.066Z,8.70
2019-05-01T23:02:48.394Z,8.70
2019-05-01T23:05:17.346Z,8.60
2019-05-01T23:07:46.348Z,8.50
2019-05-01T23:10:15.404Z,8.50
2019-05-01T23:12:44.237Z,8.50
2019-05-01T23:15:18.608Z,8.40
2019-05-01T23:17:47.538Z,8.40
2019-05-01T23:20:16.882Z,8.40
2019-05-01T23:22:45.791Z,8.30
2019-05-01T23:25:15.026Z,8.20
2019-05-01T23:27:43.959Z,8.20
2019-05-01T23:30:15.614Z,8.20
2019-05-01T23:32:44.643Z,8.20
2019-05-01T23:35:13.784Z,8.10
2019-05-01T23:37:42.777Z,8.10
2019-05-01T23:40:15.575Z,8.00
2019-05-01T23:42:43.246Z,7.90
2019-05-01T23:45:13.673Z,7.90
2019-05-01T23:47:43.918Z,7.80
2019-05-01T23:50:13.181Z,7.80
2019-05-01T23:52:42.099Z,7.70
2019-05-01T23:55:11.189Z,7.70
2019-05-01T23:57:40.123Z,7.70
